Latest Weather Observations for Cape Bruny AWS

IDT60801

Issued at 9:21 pm EDT Tuesday 23 October 2018 (issued every 10 minutes, with the page automatically refreshed every 10 minutes)

About weather observations | Map of weather stations | Latest weather observations for TAS | Other Formats
Station Details ID: 094198 Name: CAPE BRUNY (CAPE BRUNY) Lat: -43.49 Lon: 147.14 Height: 59.7 m
Data from the previous 72 hours. | See also: Recent months at Cape Bruny AWS
Date/Time
EDT
Temp
°C
App
Temp
°C
Dew
Point
°C
Rel
Hum
%
Delta-T
°C
Wind Press
QNH
hPa
Press
MSL
hPa
Rain since
9am
mm
Dir  Spd
km/h
Gust
km/h
Spd
kts
Gust
kts
23/09:05pm 9.0 0.8 2.8 65 2.6 WNW 35 57 19 31 1013.1 1013.1 0.4
23/09:00pm 9.3 2.0 2.2 61 3.0 WNW 30 44 16 24 1013.2 1013.2 0.4
23/08:30pm 9.1 2.3 2.9 65 2.7 WNW 28 39 15 21 1012.7 1012.7 0.4
23/08:00pm 9.7 1.0 2.3 60 3.1 W 37 50 20 27 1012.0 1012.0 0.4
23/07:30pm 8.8 0.9 4.2 73 2.0 WSW 35 54 19 29 1011.6 1011.6 0.4
23/07:17pm 9.8 2.8 4.0 67 2.6 WSW 30 52 16 28 1011.5 1011.5 0.4
23/07:00pm 10.4 4.3 2.5 58 3.4 W 24 33 13 18 1010.9 1010.9 0.4
23/06:30pm 10.0 4.6 4.4 68 2.5 W 22 32 12 17 1010.8 1010.8 0.4
23/06:07pm 10.0 0.5 4.0 66 2.7 WSW 43 65 23 35 1010.2 1010.2 0.4
23/06:00pm 10.0 1.0 4.6 69 2.4 WSW 41 56 22 30 1010.4 1010.4 0.4
23/05:54pm 10.4 3.3 5.6 72 2.2 W 32 56 17 30 1010.3 1010.3 0.4
23/05:31pm 12.5 5.4 3.5 54 4.0 NW 30 46 16 25 1009.8 1009.8 0.4
23/05:30pm 12.6 5.5 3.6 54 4.0 NW 30 46 16 25 1009.8 1009.8 0.4
23/05:01pm 11.9 3.8 3.4 56 3.8 W 35 61 19 33 1009.1 1009.1 0.4
23/05:00pm 12.1 4.5 4.1 58 3.6 W 33 46 18 25 1009.1 1009.1 0.4
23/04:30pm 11.7 3.6 7.2 74 2.2 WNW 39 52 21 28 1008.8 1008.8 0.4
23/04:08pm 10.8 3.6 6.0 72 2.2 W 33 52 18 28 1008.7 1008.7 0.0
23/04:00pm 11.7 4.7 6.2 69 2.6 W 32 43 17 23 1008.4 1008.4 0.0
23/03:35pm 14.0 3.5 5.4 56 4.1 W 50 69 27 37 1007.9 1007.9 0.0
23/03:30pm 13.5 1.7 4.6 55 4.1 W 56 69 30 37 1007.6 1007.6 0.0
23/03:15pm 12.5 0.4 3.2 53 4.1 W 56 70 30 38 1007.2 1007.2 0.0
23/03:01pm 12.0 2.5 4.7 61 3.3 WSW 44 61 24 33 1007.5 1007.5 0.0
23/03:00pm 12.3 3.1 5.5 63 3.2 W 43 61 23 33 1007.6 1007.6 0.0
23/02:56pm 13.2 2.9 4.9 57 3.8 W 48 67 26 36 1007.7 1007.7 0.0
23/02:49pm 15.2 5.1 3.7 46 5.3 WNW 46 67 25 36 1007.0 1007.0 0.0
23/02:30pm 12.8 1.7 4.5 57 3.8 W 52 63 28 34 1007.3 1007.3 0.0
23/02:01pm 11.6 -0.5 5.9 68 2.7 W 59 78 32 42 1007.6 1007.6 0.0
23/02:00pm 11.5 -1.0 6.0 69 2.6 W 61 78 33 42 1007.6 1007.6 0.0
23/01:30pm 12.6 1.9 4.6 58 3.7 WNW 50 74 27 40 1007.0 1007.0 0.0
23/01:14pm 15.1 5.2 3.0 44 5.5 WNW 44 67 24 36 1006.5 1006.5 0.0
23/01:00pm 14.5 4.4 5.6 55 4.2 W 48 61 26 33 1006.5 1006.5 0.0
23/12:43pm 14.9 6.5 5.4 53 4.5 W 39 56 21 30 1006.3 1006.3 0.0
23/12:42pm 14.9 6.9 5.7 54 4.4 W 37 52 20 28 1006.3 1006.3 0.0
23/12:30pm 16.3 9.0 2.7 40 6.2 WNW 30 43 16 23 1006.3 1006.3 0.0
23/12:00pm 15.7 9.4 3.5 44 5.6 W 26 35 14 19 1006.1 1006.1 0.0
23/11:40am 17.0 9.5 3.3 40 6.3 WNW 32 46 17 25 1006.2 1006.2 0.0
23/11:30am 18.1 12.9 3.6 38 6.8 WNW 20 28 11 15 1006.3 1006.3 0.0
23/11:00am 16.3 8.5 1.6 37 6.5 WNW 32 50 17 27 1006.4 1006.4 0.0
23/10:57am 16.6 9.9 3.7 42 6.0 NW 28 46 15 25 1006.4 1006.4 0.0
23/10:30am 15.6 9.4 4.3 47 5.3 NW 26 39 14 21 1006.7 1006.7 0.0
23/10:00am 14.4 8.4 3.5 48 5.0 NW 24 39 13 21 1006.9 1006.9 0.0
23/09:30am 13.8 6.5 4.7 54 4.2 NW 32 44 17 24 1007.1 1007.1 0.0
23/09:16am 13.8 6.5 4.7 54 4.2 NW 32 50 17 27 1006.8 1006.8 0.0
23/09:00am 13.2 5.8 5.1 58 3.8 NW 33 46 18 25 1006.7 1006.7 0.0
23/08:38am 13.2 6.4 7.0 66 3.0 WNW 32 50 17 27 1006.8 1006.8 0.0
23/08:30am 13.5 6.8 7.3 66 3.0 WNW 32 48 17 26 1006.6 1006.6 0.0
23/08:28am 13.6 7.6 6.9 64 3.3 WNW 28 48 15 26 1006.5 1006.5 0.0
23/08:00am 13.6 10.7 8.2 70 2.7 NNW 13 19 7 10 1006.2 1006.2 0.0
23/07:30am 13.2 10.3 8.1 71 2.5 NNW 13 15 7 8 1005.9 1005.9 0.0
23/07:00am 12.6 10.1 8.3 75 2.1 N 11 13 6 7 1005.8 1005.8 0.0
23/06:30am 12.1 9.6 6.6 69 2.6 NW 9 15 5 8 1005.7 1005.7 0.0
23/06:00am 12.7 9.1 6.7 67 2.9 NNW 15 20 8 11 1005.3 1005.3 0.0
23/05:30am 12.3 9.1 6.8 69 2.6 NNW 13 17 7 9 1005.2 1005.2 0.0
23/05:00am 12.8 9.6 7.0 68 2.8 NNW 13 19 7 10 1005.0 1005.0 0.0
23/04:30am 14.2 9.7 7.0 62 3.5 NW 20 32 11 17 1005.2 1005.2 0.0
23/04:00am 13.8 9.7 8.0 68 2.9 NNW 19 32 10 17 1005.2 1005.2 0.0
23/03:30am 14.7 9.2 7.7 63 3.5 NW 26 33 14 18 1005.3 1005.3 0.0
23/03:00am 15.0 8.5 8.0 63 3.5 NW 32 43 17 23 1005.4 1005.4 0.0
23/02:30am 15.0 10.9 8.5 65 3.3 NW 20 28 11 15 1005.7 1005.7 0.0
23/02:00am 14.5 11.7 8.5 67 3.0 NNW 13 19 7 10 1005.6 1005.6 0.0
23/01:30am 14.8 11.2 8.5 66 3.2 NNW 17 28 9 15 1005.8 1005.8 0.0
23/01:00am 15.8 11.2 8.3 61 3.8 WNW 22 43 12 23 1005.5 1005.5 0.0
23/12:30am 14.7 12.5 9.5 71 2.7 NW 11 30 6 16 1006.2 1006.2 0.0
23/12:00am 12.9 12.1 9.7 81 1.6 ESE 4 9 2 5 1005.8 1005.8 0.0
 
Date/Time
EDT
Temp
°C
App
Temp
°C
Dew
Point
°C
Rel
Hum
%
Delta-T
°C
Wind Press
QNH
hPa
Press
MSL
hPa
Rain since
9am
mm
Dir  Spd
km/h
Gust
km/h
Spd
kts
Gust
kts
22/11:30pm 14.0 10.6 10.6 80 1.8 ESE 19 24 10 13 1005.5 1005.5 0.0
22/11:00pm 14.1 10.9 10.1 77 2.1 E 17 22 9 12 1005.1 1005.1 0.0
22/10:30pm 15.3 13.8 9.0 66 3.2 SSE 7 11 4 6 1005.0 1005.0 0.0
22/10:00pm 16.4 13.0 9.3 63 3.7 NNW 17 22 9 12 1005.0 1005.0 0.0
22/09:30pm 17.3 13.8 8.7 57 4.4 N 17 24 9 13 1004.7 1004.7 0.0
22/09:00pm 17.7 14.5 8.6 55 4.7 N 15 22 8 12 1004.2 1004.2 0.0
22/08:30pm 17.7 14.5 8.6 55 4.7 NNW 15 17 8 9 1004.2 1004.2 0.0
22/08:00pm 17.4 14.6 8.5 56 4.6 N 13 17 7 9 1003.9 1003.9 0.0
22/07:30pm 18.2 14.8 9.3 56 4.7 NNE 17 24 9 13 1003.7 1003.7 0.0
22/07:00pm 19.1 16.2 9.6 54 5.1 NNE 15 26 8 14 1003.7 1003.7 0.0
22/06:30pm 19.9 16.3 9.8 52 5.4 NE 19 26 10 14 1003.5 1003.5 0.0
22/06:00pm 20.1 17.1 9.4 50 5.7 NE 15 20 8 11 1003.6 1003.6 0.0
22/05:30pm 21.7 19.0 8.9 44 6.8 N 13 20 7 11 1003.8 1003.8 0.0
22/05:00pm 22.4 19.0 9.2 43 7.1 NNE 17 26 9 14 1004.2 1004.2 0.0
22/04:30pm 22.7 18.9 9.1 42 7.3 NNE 19 28 10 15 1004.2 1004.2 0.0
22/04:00pm 22.5 18.2 7.9 39 7.7 NNE 20 28 11 15 1004.4 1004.4 0.0
22/03:30pm 23.5 19.5 8.4 38 8.0 NNE 19 32 10 17 1004.7 1004.7 0.0
22/03:00pm 23.2 19.4 9.9 43 7.3 NE 20 26 11 14 1005.1 1005.1 0.0
22/02:30pm 21.1 16.0 5.9 37 7.6 NE 22 33 12 18 1005.6 1005.6 0.0
22/02:00pm 20.4 15.8 6.4 40 7.1 NNE 20 30 11 16 1006.1 1006.1 0.0
22/01:30pm 20.7 16.0 7.7 43 6.7 NE 22 32 12 17 1006.5 1006.5 0.0
22/01:00pm 20.0 15.5 8.4 47 6.1 NNE 22 32 12 17 1006.9 1006.9 0.0
22/12:30pm 18.3 14.8 8.8 54 4.9 NNE 17 26 9 14 1007.3 1007.3 0.0
22/12:00pm 18.3 14.3 9.1 55 4.8 NNE 20 30 11 16 1007.9 1007.9 0.0
22/11:30am 17.6 14.0 8.5 55 4.7 N 17 24 9 13 1008.5 1008.5 0.0
22/11:00am 16.9 12.8 8.6 58 4.3 NE 20 28 11 15 1008.9 1008.9 0.0
22/10:30am 16.1 12.5 8.3 60 4.0 NNE 17 24 9 13 1009.1 1009.1 0.0
22/10:00am 15.4 11.6 9.1 66 3.2 N 19 30 10 16 1009.3 1009.3 0.0
22/09:30am 14.8 10.9 8.5 66 3.2 N 19 24 10 13 1009.5 1009.5 0.0
22/09:00am 14.6 10.8 9.0 69 2.9 NNE 19 30 10 16 1009.7 1009.7 0.0
22/08:30am 13.6 10.1 8.9 73 2.4 NNE 17 26 9 14 1010.0 1010.0 0.0
22/08:00am 11.8 8.8 9.2 84 1.3 NE 15 20 8 11 1010.3 1010.3 0.0
22/07:30am 11.6 9.5 9.7 88 1.0 NNE 11 15 6 8 1010.2 1010.2 0.0
22/07:00am 11.0 7.9 8.9 87 1.0 N 15 20 8 11 1010.1 1010.1 0.0
22/06:30am 10.1 6.5 8.4 89 0.8 N 17 20 9 11 1010.2 1010.2 0.0
22/06:00am 9.8 6.1 7.9 88 0.9 NNW 17 20 9 11 1010.2 1010.2 0.0
22/05:30am 9.5 7.0 8.1 91 0.7 NE 11 15 6 8 1010.5 1010.5 0.0
22/05:00am 9.5 6.6 8.3 92 0.6 N 13 17 7 9 1010.7 1010.7 0.0
22/04:30am 9.6 6.3 8.2 91 0.7 N 15 19 8 10 1010.9 1010.9 0.0
22/04:00am 9.6 6.7 8.0 90 0.8 N 13 20 7 11 1011.1 1011.1 0.0
22/03:30am 9.7 6.0 8.1 90 0.8 N 17 20 9 11 1011.4 1011.4 0.0
22/03:00am 9.8 6.1 8.1 89 0.8 N 17 19 9 10 1011.7 1011.7 0.0
22/02:30am 9.2 6.5 7.2 87 0.9 N 11 13 6 7 1012.0 1012.0 0.0
22/02:00am 9.9 7.0 6.6 80 1.5 N 11 13 6 7 1012.4 1012.4 0.0
22/01:30am 11.1 9.6 7.0 76 2.0 N 4 9 2 5 1012.9 1012.9 0.0
22/01:00am 11.3 10.4 6.0 70 2.5 CALM 0 0 0 0 1013.3 1013.4 0.0
22/12:30am 11.5 10.9 7.4 76 2.0 CALM 0 0 0 0 1013.6 1013.7 0.0
22/12:00am 11.3 9.5 7.2 76 2.0 W 6 7 3 4 1013.8 1013.9 0.0
 
Date/Time
EDT
Temp
°C
App
Temp
°C
Dew
Point
°C
Rel
Hum
%
Delta-T
°C
Wind Press
QNH
hPa
Press
MSL
hPa
Rain since
9am
mm
Dir  Spd
km/h
Gust
km/h
Spd
kts
Gust
kts
21/11:30pm 10.4 8.2 6.2 75 2.0 WNW 7 9 4 5 1014.2 1014.3 0.0
21/11:00pm 10.4 8.1 5.6 72 2.2 W 7 9 4 5 1014.3 1014.4 0.0
21/10:30pm 11.4 9.7 5.9 69 2.6 N 4 7 2 4 1014.4 1014.5 0.0
21/10:00pm 10.9 8.3 6.1 72 2.2 NNE 9 11 5 6 1014.4 1014.5 0.0
21/09:30pm 10.8 7.8 6.0 72 2.2 NE 11 15 6 8 1014.5 1014.6 0.0
21/09:00pm 11.3 8.8 6.4 72 2.3 NE 9 13 5 7 1014.7 1014.8 0.0
21/08:30pm 11.6 8.4 6.7 72 2.3 NE 13 17 7 9 1014.6 1014.7 0.0
21/08:00pm 11.8 9.0 5.2 64 3.0 NNE 9 13 5 7 1014.3 1014.4 0.0
21/07:30pm 12.4 10.2 6.2 66 2.9 ENE 7 11 4 6 1014.1 1014.2 0.0
21/07:00pm 12.8 9.9 6.6 66 3.0 ENE 11 15 6 8 1013.8 1013.9 0.0
21/06:30pm 13.2 8.7 6.8 65 3.1 ESE 20 24 11 13 1013.6 1013.7 0.0
21/06:00pm 13.4 8.8 6.7 64 3.2 ESE 20 26 11 14 1013.6 1013.7 0.0
21/05:30pm 14.4 9.9 7.0 61 3.6 ESE 20 26 11 14 1013.6 1013.7 0.0
21/05:00pm 14.9 10.6 7.9 63 3.5 ESE 20 26 11 14 1013.6 1013.7 0.0
21/04:30pm 15.3 10.9 7.6 60 3.8 ESE 20 24 11 13 1013.7 1013.8 0.0
21/04:00pm 15.5 11.6 7.3 58 4.1 SE 17 26 9 14 1013.7 1013.8 0.0
21/03:30pm 15.2 10.8 6.7 57 4.2 ESE 19 24 10 13 1014.0 1014.1 0.0
21/03:00pm 15.6 12.3 6.6 55 4.4 SSE 13 20 7 11 1014.4 1014.5 0.0
21/02:30pm 16.5 12.8 6.3 51 5.0 SSE 15 22 8 12 1014.5 1014.6 0.0
21/02:00pm 16.1 11.6 6.0 51 4.9 ESE 19 26 10 14 1014.6 1014.7 0.0
21/01:30pm 16.4 12.1 7.1 54 4.6 ESE 19 24 10 13 1014.8 1014.9 0.0
21/01:00pm 15.9 11.6 7.7 58 4.1 ESE 20 28 11 15 1014.9 1015.0 0.0
21/12:30pm 15.6 11.7 7.1 57 4.2 SE 17 24 9 13 1015.3 1015.4 0.0
21/12:00pm 15.9 13.2 5.8 51 4.9 S 9 17 5 9 1015.6 1015.7 0.0
21/11:30am 17.1 14.2 6.6 50 5.2 NNE 11 17 6 9 1015.8 1015.9 0.0
21/11:00am 16.2 12.9 6.6 53 4.7 NNE 13 20 7 11 1016.2 1016.3 0.0
21/10:30am 15.1 11.3 5.6 53 4.5 NNE 15 20 8 11 1016.3 1016.4 0.0
21/10:00am 14.7 10.9 7.5 62 3.6 NNE 17 24 9 13 1016.2 1016.3 0.0
21/09:30am 13.5 8.9 6.6 63 3.3 NE 20 28 11 15 1016.4 1016.5 0.0
21/09:00am 12.8 8.7 6.2 64 3.1 NNE 17 22 9 12 1016.3 1016.4 0.0
21/08:30am 12.2 8.1 6.0 66 2.9 NNE 17 22 9 12 1016.4 1016.5 0.0
21/08:00am 11.5 7.3 5.6 67 2.7 NNE 17 24 9 13 1016.2 1016.3 0.0
21/07:30am 10.4 6.6 5.6 72 2.2 N 15 20 8 11 1016.1 1016.2 0.0
21/07:00am 9.1 5.3 5.8 80 1.5 N 15 20 8 11 1015.9 1016.0 0.0
21/06:30am 9.4 5.0 4.6 72 2.1 NW 17 24 9 13 1015.4 1015.5 0.0
21/06:00am 8.8 4.4 4.8 76 1.8 NW 17 24 9 13 1015.1 1015.2 0.0
21/05:30am 8.1 3.6 4.3 77 1.7 NNW 17 20 9 11 1015.0 1015.1 0.0
21/05:00am 7.8 3.7 4.4 79 1.5 N 15 20 8 11 1015.2 1015.3 0.0
21/04:30am 8.4 3.9 4.2 75 1.8 N 17 22 9 12 1015.3 1015.4 0.0
21/04:00am 7.9 3.5 4.5 79 1.5 N 17 20 9 11 1015.3 1015.4 0.0
21/03:30am 8.2 3.7 4.0 75 1.8 N 17 20 9 11 1015.2 1015.3 0.0
21/03:00am 8.6 4.1 4.0 73 2.0 N 17 22 9 12 1015.3 1015.4 0.0
21/02:30am 7.8 3.2 3.5 74 1.8 N 17 20 9 11 1015.1 1015.2 0.0
21/02:00am 7.8 3.7 4.4 79 1.5 N 15 17 8 9 1015.2 1015.3 0.0
21/01:30am 9.9 3.9 3.4 64 2.8 NW 24 35 13 19 1015.3 1015.4 0.0
21/01:00am 9.8 4.3 4.0 67 2.6 WNW 22 30 12 16 1015.5 1015.6 0.0
21/12:30am 9.6 5.0 3.8 67 2.5 WNW 17 20 9 11 1015.7 1015.8 0.0
21/12:00am 10.3 2.8 4.5 67 2.6 W 33 37 18 20 1015.3 1015.4 0.0
 
Date/Time
EDT
Temp
°C
App
Temp
°C
Dew
Point
°C
Rel
Hum
%
Delta-T
°C
Wind Press
QNH
hPa
Press
MSL
hPa
Rain since
9am
mm
Dir  Spd
km/h
Gust
km/h
Spd
kts
Gust
kts
20/11:30pm 10.7 3.0 5.5 70 2.4 W 35 43 19 23 1015.0 1015.1 0.0
20/11:00pm 10.3 3.6 5.7 73 2.1 W 30 35 16 19 1015.6 1015.7 0.0
20/10:30pm 10.6 3.6 5.8 72 2.2 WNW 32 39 17 21 1015.8 1015.9 0.0
20/10:00pm 10.9 3.7 5.9 71 2.3 WNW 33 39 18 21 1015.5 1015.6 0.0
20/09:30pm 11.0 3.4 6.0 71 2.3 W 35 41 19 22 1015.3 1015.4 0.0
20/09:28pm 11.0 3.4 5.7 70 2.5 W 35 41 19 22 1015.3 1015.4 0.0

Other Formats:

Comma delimited format used in spreadsheet applications
http://www.bom.gov.au/fwo/IDT60801/IDT60801.95967.axf

JavaScript Object Notation format (JSON) in row-major order
http://www.bom.gov.au/fwo/IDT60801/IDT60801.95967.json